Terminal Aerodrome Forecast
Issued by NWS Upton, NY

Home | Current Version | Previous Version | Text Only | Print | Product List | Glossary On
Versions: 1 2 3 4 5 6 7 8 9 10 11 12 13 14 15 16 17 18 19 20 21 22 23 24 25 26 27 28 29 30 31
000
FTUS41 KOKX 291546 AAB
TAFJFK
TAF AMD
KJFK 291546Z 2916/3018 18011KT P6SM FEW060 SCT250
     FM292100 18016KT P6SM FEW060 SCT250
     FM300100 21010KT P6SM FEW060 SCT250
     FM301100 21008KT 6SM HZ FEW030 SCT050
     FM301400 20012KT P6SM SCT030 BKN050=

USA.gov is the U.S. government's official web portal to all federal, state and local government web resources and services.